Terminal Aerodrome Forecast
Issued by NWS

Home | Current Version | Previous Version | Text Only | Print | Product List | Glossary On
Versions: 1 2 3 4 5 6 7 8 9 10 11 12
000
FTUS42 TJSJ 301700
TAFJBQ
TAF
TJBQ 301730Z 3018/3118 07015KT P6SM SCT025 SCT030 SCT080
     FM302300 07005KT P6SM SCT030
     FM311600 07015KT P6SM SCT035
      AMD NOT SKED 3102/3111=

USA.gov is the U.S. government's official web portal to all federal, state and local government web resources and services.